FredonyerEastRWIS Atmospheric Data: 08/13/2019 Summary  Detailed Graphs  Station List

  Temperature     Wind Precipitation Visibility
Timestamp Air Wet
Bulb
Dew-
point
24-hr
Max
24-hr
Min
Relative
Humidity
Atmospheric
Pressure
Avg
Speed
Avg
Dir
Spot
Speed
Spot
Dir
Max
Speed
Max
Dir
  Rate Situation Start End 1 hr 3 hr 6 hr 12 hr 24 hr   Situation
Date Time °F °F °F °F °F % in Hg mph ° mph ° mph ° Y/N in/hr text Date Time Date Time in in in in in mi text
08/13/2019 12:08 AM 56.48 48.56 41.00 82.58 41.54 55.0 Not Reported 1.12 W 0.45 W 2.68 SW No 0.000 No Precipitation 08/10/2019 12:55 PM 08/10/2019 01:05 PM 0.000 0.000 0.000 0.000 0.000 Not Reported Not Reported
08/13/2019 12:23 AM 56.84 48.92 41.00 82.58 41.54 55.0 Not Reported 2.91 S 1.12 SE 3.80 W No 0.000 No Precipitation 08/10/2019 12:55 PM 08/10/2019 01:05 PM 0.000 0.000 0.000 0.000 0.000 Not Reported Not Reported
08/13/2019 12:38 AM 55.76 48.38 41.18 82.58 41.54 58.0 Not Reported 1.57 W 2.68 NW 3.13 SW No 0.000 No Precipitation 08/10/2019 12:55 PM 08/10/2019 01:05 PM 0.000 0.000 0.000 0.000 0.000 Not Reported Not Reported
08/13/2019 12:53 AM 54.86 48.02 41.18 82.58 41.54 59.0 Not Reported 0.89 NW 1.79 NW 2.91 NW No 0.000 No Precipitation 08/10/2019 12:55 PM 08/10/2019 01:05 PM 0.000 0.000 0.000 0.000 0.000 Not Reported Not Reported
08/13/2019 01:09 AM 54.86 47.66 40.82 82.58 41.54 59.0 Not Reported 1.57 NW 0.89 NW 2.24 W No 0.000 No Precipitation 08/10/2019 12:55 PM 08/10/2019 01:05 PM 0.000 0.000 0.000 0.000 0.000 Not Reported Not Reported
08/13/2019 01:23 AM 53.96 47.12 40.28 82.58 41.54 60.0 Not Reported 2.01 NW 0.22 NW 2.24 NW No 0.000 No Precipitation 08/10/2019 12:55 PM 08/10/2019 01:05 PM 0.000 0.000 0.000 0.000 0.000 Not Reported Not Reported
08/13/2019 01:38 AM 53.60 46.94 40.46 82.58 41.54 61.0 Not Reported 1.79 NW 1.79 NW 2.46 NW No 0.000 No Precipitation 08/10/2019 12:55 PM 08/10/2019 01:05 PM 0.000 0.000 0.000 0.000 0.000 Not Reported Not Reported
08/13/2019 01:53 AM 53.78 47.30 40.64 82.58 41.54 60.0 Not Reported 2.01 N 0.45 NW 1.57 NW No 0.000 No Precipitation 08/10/2019 12:55 PM 08/10/2019 01:05 PM 0.000 0.000 0.000 0.000 0.000 Not Reported Not Reported
08/13/2019 02:08 AM 53.96 47.12 40.46 82.58 41.54 60.0 Not Reported 0.00 NW 0.00 S 3.13 NW No 0.000 No Precipitation 08/10/2019 12:55 PM 08/10/2019 01:05 PM 0.000 0.000 0.000 0.000 0.000 Not Reported Not Reported
08/13/2019 02:23 AM 52.52 46.58 40.46 82.58 41.54 63.0 Not Reported 0.00 N 0.45 N 1.79 W No 0.000 No Precipitation 08/10/2019 12:55 PM 08/10/2019 01:05 PM 0.000 0.000 0.000 0.000 0.000 Not Reported Not Reported
08/13/2019 02:38 AM 51.80 46.04 40.10 82.58 41.54 64.0 Not Reported 0.22 N 0.89 N 0.67 N No 0.000 No Precipitation 08/10/2019 12:55 PM 08/10/2019 01:05 PM 0.000 0.000 0.000 0.000 0.000 Not Reported Not Reported
08/13/2019 02:53 AM 51.62 45.86 39.74 82.58 41.54 63.0 Not Reported 0.22 NE 0.89 NW 1.34 NW No 0.000 No Precipitation 08/10/2019 12:55 PM 08/10/2019 01:05 PM 0.000 0.000 0.000 0.000 0.000 Not Reported Not Reported
08/13/2019 03:08 AM 51.26 45.32 39.02 82.58 41.54 63.0 Not Reported 0.22 NE 0.67 N 1.79 NW No 0.000 No Precipitation 08/10/2019 12:55 PM 08/10/2019 01:05 PM 0.000 0.000 0.000 0.000 0.000 Not Reported Not Reported
08/13/2019 03:23 AM 50.54 44.96 39.20 82.58 41.54 64.0 Not Reported 0.00 NW 0.89 E 3.36 NW No 0.000 No Precipitation 08/10/2019 12:55 PM 08/10/2019 01:05 PM 0.000 0.000 0.000 0.000 0.000 Not Reported Not Reported
08/13/2019 03:38 AM 50.36 45.14 39.38 82.58 41.54 65.0 Not Reported 0.00 NW 1.57 NW 1.79 W No 0.000 No Precipitation 08/10/2019 12:55 PM 08/10/2019 01:05 PM 0.000 0.000 0.000 0.000 0.000 Not Reported Not Reported
08/13/2019 03:54 AM 50.18 44.42 37.94 82.58 41.54 62.0 Not Reported 1.79 NW 0.00 NE 1.34 NW No 0.000 No Precipitation 08/10/2019 12:55 PM 08/10/2019 01:05 PM 0.000 0.000 0.000 0.000 0.000 Not Reported Not Reported
08/13/2019 04:10 AM 49.82 44.24 38.48 82.58 41.54 64.0 Not Reported 0.22 NW 2.46 NW 2.46 NW No 0.000 No Precipitation 08/10/2019 12:55 PM 08/10/2019 01:05 PM 0.000 0.000 0.000 0.000 0.000 Not Reported Not Reported
08/13/2019 04:24 AM 49.64 43.88 37.76 82.58 41.54 63.0 Not Reported 0.00 N 0.67 N 2.68 W No 0.000 No Precipitation 08/10/2019 12:55 PM 08/10/2019 01:05 PM 0.000 0.000 0.000 0.000 0.000 Not Reported Not Reported
08/13/2019 04:38 AM 48.92 43.52 37.76 82.58 41.54 65.0 Not Reported 0.22 NW 1.12 NW 1.34 NW No 0.000 No Precipitation 08/10/2019 12:55 PM 08/10/2019 01:05 PM 0.000 0.000 0.000 0.000 0.000 Not Reported Not Reported
08/13/2019 04:53 AM 48.20 42.98 37.04 82.58 41.54 65.0 Not Reported 0.00 N 0.00 NW 0.00 NW No 0.000 No Precipitation 08/10/2019 12:55 PM 08/10/2019 01:05 PM 0.000 0.000 0.000 0.000 0.000 Not Reported Not Reported
08/13/2019 05:08 AM 47.48 42.98 37.58 82.58 41.54 68.0 Not Reported 0.00 NW 0.00 NW 0.67 NW No 0.000 No Precipitation 08/10/2019 12:55 PM 08/10/2019 01:05 PM 0.000 0.000 0.000 0.000 0.000 Not Reported Not Reported
08/13/2019 05:26 AM 47.12 42.80 37.58 82.58 41.54 69.0 Not Reported 0.00 NW 0.00 NW 0.89 NW No 0.000 No Precipitation 08/10/2019 12:55 PM 08/10/2019 01:05 PM 0.000 0.000 0.000 0.000 0.000 Not Reported Not Reported
08/13/2019 05:38 AM 47.30 42.80 37.76 82.58 41.54 68.0 Not Reported 0.67 N 0.22 N 1.12 NW No 0.000 No Precipitation 08/10/2019 12:55 PM 08/10/2019 01:05 PM 0.000 0.000 0.000 0.000 0.000 Not Reported Not Reported
08/13/2019 05:53 AM 46.94 42.44 37.22 82.58 41.54 68.0 Not Reported 0.00 N 0.00 NW 0.89 NW No 0.000 No Precipitation 08/10/2019 12:55 PM 08/10/2019 01:05 PM 0.000 0.000 0.000 0.000 0.000 Not Reported Not Reported
08/13/2019 06:08 AM 46.58 42.44 37.58 82.58 41.54 70.0 Not Reported 0.00 N 0.00 NW 0.00 NW No 0.000 No Precipitation 08/10/2019 12:55 PM 08/10/2019 01:05 PM 0.000 0.000 0.000 0.000 0.000 Not Reported Not Reported
08/13/2019 06:25 AM 46.22 42.08 37.58 82.58 41.72 71.0 Not Reported 0.00 N 0.00 SW 0.00 NW No 0.000 No Precipitation 08/10/2019 12:55 PM 08/10/2019 01:05 PM 0.000 0.000 0.000 0.000 0.000 Not Reported Not Reported
08/13/2019 06:39 AM 46.40 42.26 37.76 82.58 41.72 71.0 Not Reported 0.00 N 0.00 NW 0.22 NW No 0.000 No Precipitation 08/10/2019 12:55 PM 08/10/2019 01:05 PM 0.000 0.000 0.000 0.000 0.000 Not Reported Not Reported
08/13/2019 06:53 AM 46.94 42.80 38.12 82.58 42.62 71.0 Not Reported 0.00 N 0.00 NW 0.00 NW No 0.000 No Precipitation 08/10/2019 12:55 PM 08/10/2019 01:05 PM 0.000 0.000 0.000 0.000 0.000 Not Reported Not Reported
08/13/2019 07:08 AM 47.30 43.16 38.48 82.58 43.70 71.0 Not Reported 0.00 N 0.00 NW 0.00 NW No 0.000 No Precipitation 08/10/2019 12:55 PM 08/10/2019 01:05 PM 0.000 0.000 0.000 0.000 0.000 Not Reported Not Reported
08/13/2019 07:23 AM 48.56 44.42 40.10 82.58 44.78 72.0 Not Reported 0.00 N 0.00 NW 0.00 NW No 0.000 No Precipitation 08/10/2019 12:55 PM 08/10/2019 01:05 PM 0.000 0.000 0.000 0.000 0.000 Not Reported Not Reported
08/13/2019 07:40 AM 50.72 46.22 41.72 82.58 46.04 70.0 Not Reported 0.00 N 0.00 NE 0.00 N No 0.000 No Precipitation 08/10/2019 12:55 PM 08/10/2019 01:05 PM 0.000 0.000 0.000 0.000 0.000 Not Reported Not Reported
08/13/2019 07:53 AM 54.32 48.92 43.70 82.58 46.04 67.0 Not Reported 0.00 N 0.00 N 0.00 NE No 0.000 No Precipitation 08/10/2019 12:55 PM 08/10/2019 01:05 PM 0.000 0.000 0.000 0.000 0.000 Not Reported Not Reported
08/13/2019 08:08 AM 59.36 50.72 42.98 82.58 46.04 54.0 Not Reported 1.12 S 0.89 S 1.34 SE No 0.000 No Precipitation 08/10/2019 12:55 PM 08/10/2019 01:05 PM 0.000 0.000 0.000 0.000 0.000 Not Reported Not Reported
08/13/2019 08:24 AM 61.16 51.62 43.34 82.58 46.04 51.0 Not Reported 1.57 S 1.57 S 1.57 S No 0.000 No Precipitation 08/10/2019 12:55 PM 08/10/2019 01:05 PM 0.000 0.000 0.000 0.000 0.000 Not Reported Not Reported
08/13/2019 08:39 AM 63.14 52.52 43.34 82.58 46.04 47.0 Not Reported 0.67 S 0.67 S 2.46 SE No 0.000 No Precipitation 08/10/2019 12:55 PM 08/10/2019 01:05 PM 0.000 0.000 0.000 0.000 0.000 Not Reported Not Reported
08/13/2019 08:53 AM 64.58 53.06 43.16 82.58 46.04 45.0 Not Reported 1.34 SE 2.01 S 2.68 SE No 0.000 No Precipitation 08/10/2019 12:55 PM 08/10/2019 01:05 PM 0.000 0.000 0.000 0.000 0.000 Not Reported Not Reported
08/13/2019 09:08 AM 66.38 53.60 42.44 82.58 46.04 41.0 Not Reported 2.46 S 2.68 S 3.13 SE No 0.000 No Precipitation 08/10/2019 12:55 PM 08/10/2019 01:05 PM 0.000 0.000 0.000 0.000 0.000 Not Reported Not Reported
08/13/2019 09:23 AM 69.26 54.50 41.90 82.58 46.04 37.0 Not Reported 1.79 SE 2.46 SE 3.58 SE No 0.000 No Precipitation 08/10/2019 12:55 PM 08/10/2019 01:05 PM 0.000 0.000 0.000 0.000 0.000 Not Reported Not Reported
08/13/2019 09:38 AM 71.24 54.14 38.66 82.58 46.04 30.0 Not Reported 3.58 SE 4.70 SE 2.91 SE No 0.000 No Precipitation 08/10/2019 12:55 PM 08/10/2019 01:05 PM 0.000 0.000 0.000 0.000 0.000 Not Reported Not Reported
08/13/2019 09:53 AM 72.50 54.86 39.20 82.58 46.04 29.0 Not Reported 2.46 SE 2.46 S 6.04 SE No 0.000 No Precipitation 08/10/2019 12:55 PM 08/10/2019 01:05 PM 0.000 0.000 0.000 0.000 0.000 Not Reported Not Reported
08/13/2019 10:08 AM 73.22 55.04 38.48 82.58 46.04 28.0 Not Reported 2.68 SE 4.25 SE 4.03 SE No 0.000 No Precipitation 08/10/2019 12:55 PM 08/10/2019 01:05 PM 0.000 0.000 0.000 0.000 0.000 Not Reported Not Reported
08/13/2019 10:24 AM 73.94 55.40 38.48 82.58 46.04 27.0 Not Reported 0.45 W 0.45 S 6.71 SE No 0.000 No Precipitation 08/10/2019 12:55 PM 08/10/2019 01:05 PM 0.000 0.000 0.000 0.000 0.000 Not Reported Not Reported
08/13/2019 10:39 AM 75.38 55.94 39.02 82.58 46.04 26.0 Not Reported 2.68 NE 3.13 SE 5.14 SE No 0.000 No Precipitation 08/10/2019 12:55 PM 08/10/2019 01:05 PM 0.000 0.000 0.000 0.000 0.000 Not Reported Not Reported
08/13/2019 10:53 AM 76.10 55.22 35.60 82.58 46.04 22.0 Not Reported 0.67 NW 3.36 NE 3.58 E No 0.000 No Precipitation 08/10/2019 12:55 PM 08/10/2019 01:05 PM 0.000 0.000 0.000 0.000 0.000 Not Reported Not Reported
08/13/2019 11:08 AM 77.72 54.14 29.30 82.58 46.04 16.0 Not Reported 5.59 SW 5.37 S 4.03 N No 0.000 No Precipitation 08/10/2019 12:55 PM 08/10/2019 01:05 PM 0.000 0.000 0.000 0.000 0.000 Not Reported Not Reported
08/13/2019 11:23 AM 78.08 52.88 23.36 82.58 46.04 12.0 Not Reported 5.37 S 4.25 S 9.17 S No 0.000 No Precipitation 08/10/2019 12:55 PM 08/10/2019 01:05 PM 0.000 0.000 0.000 0.000 0.000 Not Reported Not Reported
08/13/2019 11:38 AM 78.98 53.78 25.34 82.58 46.04 13.0 Not Reported 1.34 NE 3.80 SE 8.05 SE No 0.000 No Precipitation 08/10/2019 12:55 PM 08/10/2019 01:05 PM 0.000 0.000 0.000 0.000 0.000 Not Reported Not Reported
08/13/2019 11:53 AM 79.52 55.22 30.92 82.58 46.04 16.0 Not Reported 4.03 S 2.46 E 8.28 S No 0.000 No Precipitation 08/10/2019 12:55 PM 08/10/2019 01:05 PM 0.000 0.000 0.000 0.000 0.000 Not Reported Not Reported
08/13/2019 12:08 PM 78.62 55.04 31.64 82.58 46.04 17.0 Not Reported 5.14 NW 5.59 NW 9.40 S No 0.000 No Precipitation 08/10/2019 12:55 PM 08/10/2019 01:05 PM 0.000 0.000 0.000 0.000 0.000 Not Reported Not Reported
08/13/2019 12:23 PM 79.88 55.40 30.74 82.58 46.04 16.0 Not Reported 2.91 SE 5.59 SW 7.38 S No 0.000 No Precipitation 08/10/2019 12:55 PM 08/10/2019 01:05 PM 0.000 0.000 0.000 0.000 0.000 Not Reported Not Reported
08/13/2019 12:38 PM 80.60 53.06 18.14 82.58 46.04 9.0 Not Reported 4.47 W 1.79 N 8.50 SE No 0.000 No Precipitation 08/10/2019 12:55 PM 08/10/2019 01:05 PM 0.000 0.000 0.000 0.000 0.000 Not Reported Not Reported
08/13/2019 12:53 PM 80.60 52.34 13.82 82.58 46.04 7.0 Not Reported 7.61 SW 4.25 W 10.96 SE No 0.000 No Precipitation 08/10/2019 12:55 PM 08/10/2019 01:05 PM 0.000 0.000 0.000 0.000 0.000 Not Reported Not Reported
08/13/2019 01:08 PM 80.42 52.70 15.80 82.58 46.04 8.0 Not Reported 9.84 S 4.25 SE 12.30 W No 0.000 No Precipitation 08/10/2019 12:55 PM 08/10/2019 01:05 PM 0.000 0.000 0.000 0.000 0.000 Not Reported Not Reported
08/13/2019 01:23 PM 80.06 52.16 14.18 82.58 46.04 8.0 Not Reported 3.58 S 3.36 SE 11.18 NW No 0.000 No Precipitation 08/10/2019 12:55 PM 08/10/2019 01:05 PM 0.000 0.000 0.000 0.000 0.000 Not Reported Not Reported
08/13/2019 01:38 PM 82.40 54.32 21.20 82.58 46.04 10.0 Not Reported 5.14 S 2.24 S 9.17 SE No 0.000 No Precipitation 08/10/2019 12:55 PM 08/10/2019 01:05 PM 0.000 0.000 0.000 0.000 0.000 Not Reported Not Reported
08/13/2019 01:53 PM 81.86 55.58 28.22 83.48 46.04 13.0 Not Reported 4.47 NW 5.14 SW 11.18 S No 0.000 No Precipitation 08/10/2019 12:55 PM 08/10/2019 01:05 PM 0.000 0.000 0.000 0.000 0.000 Not Reported Not Reported
08/13/2019 02:08 PM 82.22 56.12 30.02 83.48 46.04 14.0 Not Reported 3.36 NW 3.36 S 11.18 SE No 0.000 No Precipitation 08/10/2019 12:55 PM 08/10/2019 01:05 PM 0.000 0.000 0.000 0.000 0.000 Not Reported Not Reported
08/13/2019 02:23 PM 82.76 55.94 28.40 84.02 46.04 13.0 Not Reported 3.80 SW 4.92 SW 9.84 S No 0.000 No Precipitation 08/10/2019 12:55 PM 08/10/2019 01:05 PM 0.000 0.000 0.000 0.000 0.000 Not Reported Not Reported
08/13/2019 02:38 PM 82.22 55.40 26.06 84.02 46.04 12.0 Not Reported 6.49 S 3.58 S 6.49 SW No 0.000 No Precipitation 08/10/2019 12:55 PM 08/10/2019 01:05 PM 0.000 0.000 0.000 0.000 0.000 Not Reported Not Reported
08/13/2019 02:53 PM 83.30 55.22 24.08 84.20 46.04 11.0 Not Reported 3.58 S 4.03 SW 10.29 SW No 0.000 No Precipitation 08/10/2019 12:55 PM 08/10/2019 01:05 PM 0.000 0.000 0.000 0.000 0.000 Not Reported Not Reported
08/13/2019 03:08 PM 82.58 54.68 22.64 84.20 46.04 10.0 Not Reported 8.72 SE 10.29 S 7.83 SW No 0.000 No Precipitation 08/10/2019 12:55 PM 08/10/2019 01:05 PM 0.000 0.000 0.000 0.000 0.000 Not Reported Not Reported
08/13/2019 03:23 PM 82.04 55.04 25.34 85.64 46.04 12.0 Not Reported 4.03 N 0.22 NW 8.05 W No 0.000 No Precipitation 08/10/2019 12:55 PM 08/10/2019 01:05 PM 0.000 0.000 0.000 0.000 0.000 Not Reported Not Reported
08/13/2019 03:38 PM 83.30 56.30 29.12 85.64 46.04 13.0 Not Reported 3.36 S 1.57 SW 5.37 NW No 0.000 No Precipitation 08/10/2019 12:55 PM 08/10/2019 01:05 PM 0.000 0.000 0.000 0.000 0.000 Not Reported Not Reported
08/13/2019 03:54 PM 82.76 57.02 32.00 85.64 46.04 16.0 Not Reported 3.36 SE 4.47 SE 10.96 NW No 0.000 No Precipitation 08/10/2019 12:55 PM 08/10/2019 01:05 PM 0.000 0.000 0.000 0.000 0.000 Not Reported Not Reported
08/13/2019 04:08 PM 83.30 58.28 35.96 85.64 46.04 18.0 Not Reported 6.93 SE 3.13 S 8.05 W No 0.000 No Precipitation 08/10/2019 12:55 PM 08/10/2019 01:05 PM 0.000 0.000 0.000 0.000 0.000 Not Reported Not Reported
08/13/2019 04:24 PM 82.76 58.28 37.04 85.64 46.04 19.0 Not Reported 4.92 SW 2.46 SE 10.07 S No 0.000 No Precipitation 08/10/2019 12:55 PM 08/10/2019 01:05 PM 0.000 0.000 0.000 0.000 0.000 Not Reported Not Reported
08/13/2019 04:38 PM 82.22 58.28 37.40 85.64 46.04 20.0 Not Reported 4.47 W 2.68 NW 9.17 S No 0.000 No Precipitation 08/10/2019 12:55 PM 08/10/2019 01:05 PM 0.000 0.000 0.000 0.000 0.000 Not Reported Not Reported
08/13/2019 04:54 PM 82.94 58.82 37.76 85.64 46.04 20.0 Not Reported 2.68 SE 3.80 SW 8.95 SW No 0.000 No Precipitation 08/10/2019 12:55 PM 08/10/2019 01:05 PM 0.000 0.000 0.000 0.000 0.000 Not Reported Not Reported
08/13/2019 05:08 PM 83.30 58.64 37.40 85.64 46.04 19.0 Not Reported 3.80 S 5.14 S 7.16 S No 0.000 No Precipitation 08/10/2019 12:55 PM 08/10/2019 01:05 PM 0.000 0.000 0.000 0.000 0.000 Not Reported Not Reported
08/13/2019 05:23 PM 83.66 58.82 37.40 85.64 46.04 19.0 Not Reported 2.68 W 3.80 W 8.95 SW No 0.000 No Precipitation 08/10/2019 12:55 PM 08/10/2019 01:05 PM 0.000 0.000 0.000 0.000 0.000 Not Reported Not Reported
08/13/2019 05:38 PM 82.58 58.46 37.58 85.64 46.04 20.0 Not Reported 4.25 S 5.14 SW 7.16 W No 0.000 No Precipitation 08/10/2019 12:55 PM 08/10/2019 01:05 PM 0.000 0.000 0.000 0.000 0.000 Not Reported Not Reported
08/13/2019 05:53 PM 82.40 58.10 36.50 85.64 46.04 19.0 Not Reported 3.13 W 2.24 N 5.59 SW No 0.000 No Precipitation 08/10/2019 12:55 PM 08/10/2019 01:05 PM 0.000 0.000 0.000 0.000 0.000 Not Reported Not Reported
08/13/2019 06:09 PM 82.58 58.10 36.68 85.64 46.04 19.0 Not Reported 4.47 S 2.01 W 8.72 S No 0.000 No Precipitation 08/10/2019 12:55 PM 08/10/2019 01:05 PM 0.000 0.000 0.000 0.000 0.000 Not Reported Not Reported
08/13/2019 06:23 PM 82.04 58.10 37.40 85.64 46.04 20.0 Not Reported 2.91 W 2.01 NW 6.71 W No 0.000 No Precipitation 08/10/2019 12:55 PM 08/10/2019 01:05 PM 0.000 0.000 0.000 0.000 0.000 Not Reported Not Reported
08/13/2019 06:39 PM 80.06 57.56 38.30 85.64 46.04 22.0 Not Reported 4.03 W 5.14 NW 5.59 W No 0.000 No Precipitation 08/10/2019 12:55 PM 08/10/2019 01:05 PM 0.000 0.000 0.000 0.000 0.000 Not Reported Not Reported
08/13/2019 06:53 PM 78.62 57.56 39.56 85.64 46.04 24.0 Not Reported 4.70 NW 2.46 W 7.16 W No 0.000 No Precipitation 08/10/2019 12:55 PM 08/10/2019 01:05 PM 0.000 0.000 0.000 0.000 0.000 Not Reported Not Reported
08/13/2019 07:08 PM 77.90 57.74 41.18 85.64 46.04 26.0 Not Reported 2.91 W 0.00 W 6.71 NW No 0.000 No Precipitation 08/10/2019 12:55 PM 08/10/2019 01:05 PM 0.000 0.000 0.000 0.000 0.000 Not Reported Not Reported
08/13/2019 07:23 PM 77.00 57.74 42.08 85.64 46.04 28.0 Not Reported 4.03 W 4.03 W 5.59 NW No 0.000 No Precipitation 08/10/2019 12:55 PM 08/10/2019 01:05 PM 0.000 0.000 0.000 0.000 0.000 Not Reported Not Reported
08/13/2019 07:38 PM 75.74 57.56 42.80 85.64 46.04 30.0 Not Reported 1.79 W 2.01 W 5.14 W No 0.000 No Precipitation 08/10/2019 12:55 PM 08/10/2019 01:05 PM 0.000 0.000 0.000 0.000 0.000 Not Reported Not Reported
08/13/2019 07:53 PM 75.02 57.56 43.34 85.64 46.04 32.0 Not Reported 1.79 W 3.80 W 4.25 W No 0.000 No Precipitation 08/10/2019 12:55 PM 08/10/2019 01:05 PM 0.000 0.000 0.000 0.000 0.000 Not Reported Not Reported
08/13/2019 08:08 PM 72.32 56.66 44.24 85.64 46.04 36.0 Not Reported 2.68 W 2.46 NW 4.70 W No 0.000 No Precipitation 08/10/2019 12:55 PM 08/10/2019 01:05 PM 0.000 0.000 0.000 0.000 0.000 Not Reported Not Reported
08/13/2019 08:24 PM 71.06 56.12 43.88 85.64 46.04 37.0 Not Reported 1.79 W 2.01 SW 4.25 W No 0.000 No Precipitation 08/10/2019 12:55 PM 08/10/2019 01:05 PM 0.000 0.000 0.000 0.000 0.000 Not Reported Not Reported
08/13/2019 08:39 PM 69.44 55.40 44.24 85.64 46.04 40.0 Not Reported 2.01 W 2.68 W 3.58 W No 0.000 No Precipitation 08/10/2019 12:55 PM 08/10/2019 01:05 PM 0.000 0.000 0.000 0.000 0.000 Not Reported Not Reported
08/13/2019 08:55 PM 68.00 54.86 43.88 85.64 46.04 41.0 Not Reported 2.68 W 3.36 W 3.36 NW No 0.000 No Precipitation 08/10/2019 12:55 PM 08/10/2019 01:05 PM 0.000 0.000 0.000 0.000 0.000 Not Reported Not Reported
08/13/2019 09:08 PM 65.66 53.78 43.34 85.64 46.04 44.0 Not Reported 1.34 W 1.34 NW 3.36 W No 0.000 No Precipitation 08/10/2019 12:55 PM 08/10/2019 01:05 PM 0.000 0.000 0.000 0.000 0.000 Not Reported Not Reported
08/13/2019 09:24 PM 64.22 52.88 43.16 85.64 46.04 45.0 Not Reported 0.00 N 0.00 W 1.12 W No 0.000 No Precipitation 08/10/2019 12:55 PM 08/10/2019 01:05 PM 0.000 0.000 0.000 0.000 0.000 Not Reported Not Reported
08/13/2019 09:38 PM 62.96 52.34 42.98 85.64 46.04 47.0 Not Reported 0.00 N 0.00 W 0.00 W No 0.000 No Precipitation 08/10/2019 12:55 PM 08/10/2019 01:05 PM 0.000 0.000 0.000 0.000 0.000 Not Reported Not Reported
08/13/2019 09:53 PM 61.88 51.44 41.72 85.64 46.04 47.0 Not Reported 0.00 NW 1.12 NW 1.34 NW No 0.000 No Precipitation 08/10/2019 12:55 PM 08/10/2019 01:05 PM 0.000 0.000 0.000 0.000 0.000 Not Reported Not Reported
08/13/2019 10:08 PM 61.34 50.90 41.36 85.64 46.04 47.0 Not Reported 1.79 W 0.67 NW 1.12 W No 0.000 No Precipitation 08/10/2019 12:55 PM 08/10/2019 01:05 PM 0.000 0.000 0.000 0.000 0.000 Not Reported Not Reported
08/13/2019 10:23 PM 60.80 50.90 41.54 85.64 46.04 48.0 Not Reported 0.22 W 0.45 S 1.57 NW No 0.000 No Precipitation 08/10/2019 12:55 PM 08/10/2019 01:05 PM 0.000 0.000 0.000 0.000 0.000 Not Reported Not Reported
08/13/2019 10:38 PM 60.26 50.36 40.82 85.64 46.04 48.0 Not Reported 0.67 N 0.89 N 2.24 W No 0.000 No Precipitation 08/10/2019 12:55 PM 08/10/2019 01:05 PM 0.000 0.000 0.000 0.000 0.000 Not Reported Not Reported
08/13/2019 10:53 PM 60.44 50.36 40.28 85.64 46.04 47.0 Not Reported 1.12 NE 0.00 N 2.46 S No 0.000 No Precipitation 08/10/2019 12:55 PM 08/10/2019 01:05 PM 0.000 0.000 0.000 0.000 0.000 Not Reported Not Reported
08/13/2019 11:08 PM 59.72 49.82 40.28 85.64 46.04 48.0 Not Reported 1.12 W 0.89 W 2.24 NE No 0.000 No Precipitation 08/10/2019 12:55 PM 08/10/2019 01:05 PM 0.000 0.000 0.000 0.000 0.000 Not Reported Not Reported
08/13/2019 11:24 PM 59.36 49.46 40.28 85.64 46.04 47.0 Not Reported 0.67 SW 0.00 SW 2.01 NW No 0.000 No Precipitation 08/10/2019 12:55 PM 08/10/2019 01:05 PM 0.000 0.000 0.000 0.000 0.000 Not Reported Not Reported
08/13/2019 11:38 PM 58.64 49.10 39.56 85.64 46.04 48.0 Not Reported 0.67 NW 1.34 NW 1.57 S No 0.000 No Precipitation 08/10/2019 12:55 PM 08/10/2019 01:05 PM 0.000 0.000 0.000 0.000 0.000 Not Reported Not Reported
08/13/2019 11:54 PM 58.28 48.92 39.74 85.64 46.04 50.0 Not Reported 0.67 S 0.00 S 1.34 NW No 0.000 No Precipitation 08/10/2019 12:55 PM 08/10/2019 01:05 PM 0.000 0.000 0.000 0.000 0.000 Not Reported Not Reported